Time;durP1;ratioP1;P1;durP2;ratioP2;P2;SDS_P1;SDS_P2;PMS_P1;PMS_P2;Temp;Humidity;BMP_temperature;BMP_pressure;BME280_temperature;BME280_humidity;BME280_pressure;Samples;Min_cycle;Max_cycle;Signal;HPM_P1;HPM_P2
2023/05/09 00:03:15;;;;;;;16.43;13.50;;;;;;;18.56;60.49;99029.88;6976121;28;20230;-84
2023/05/09 00:06:37;;;;;;;13.50;12.20;;;;;;;18.51;60.26;99010.69;6977366;28;20230;-83
2023/05/09 00:10:00;;;;;;;15.77;13.87;;;;;;;18.25;61.22;99029.63;6976810;28;20210;-83
2023/05/09 00:13:22;;;;;;;15.80;14.10;;;;;;;18.69;59.74;99028.72;6976158;28;20699;-84
2023/05/09 00:16:43;;;;;;;19.03;14.30;;;;;;;19.06;58.46;99021.56;6975997;28;20245;-84
2023/05/09 00:20:10;;;;;;;17.37;14.77;;;;;;;19.19;57.93;99002.88;6973668;28;20293;-84
2023/05/09 00:23:32;;;;;;;15.67;13.33;;;;;;;19.35;57.22;98999.25;6976137;28;20288;-84
2023/05/09 00:26:54;;;;;;;15.50;13.97;;;;;;;19.60;55.92;99013.22;6976480;28;20356;-83
2023/05/09 00:30:16;;;;;;;14.37;12.10;;;;;;;19.66;55.83;99000.41;6976670;28;20277;-83
2023/05/09 00:33:38;;;;;;;12.70;10.67;;;;;;;19.15;56.98;98968.91;6976420;28;20230;-84
2023/05/09 00:37:00;;;;;;;13.20;11.57;;;;;;;19.16;57.52;98989.69;6954788;28;20239;-84
2023/05/09 00:40:22;;;;;;;13.87;11.87;;;;;;;18.65;58.51;98990.16;6948754;28;20217;-84
2023/05/09 00:43:45;;;;;;;13.43;12.00;;;;;;;18.46;58.97;98960.66;6947576;28;20209;-84
2023/05/09 00:47:07;;;;;;;18.47;12.73;;;;;;;18.04;60.67;98959.44;6946310;28;20227;-84
2023/05/09 00:50:28;;;;;;;14.50;13.10;;;;;;;18.00;60.78;98988.28;6946935;28;20296;-84
2023/05/09 00:53:50;;;;;;;14.47;12.90;;;;;;;18.25;60.59;98985.94;6947092;28;20770;-84
2023/05/09 00:57:11;;;;;;;15.70;13.53;;;;;;;18.31;60.36;98977.63;6947368;28;20227;-82
2023/05/09 01:00:35;;;;;;;15.17;12.50;;;;;;;18.36;59.78;98971.41;6948462;28;20296;-84
2023/05/09 01:03:57;;;;;;;13.50;11.77;;;;;;;18.47;59.10;98971.31;6947560;28;20212;-84
2023/05/09 01:07:22;;;;;;;13.20;11.73;;;;;;;18.39;59.54;98973.66;6947471;28;20283;-83
2023/05/09 01:10:48;;;;;;;15.93;13.53;;;;;;;17.71;60.62;98954.81;6947899;28;20188;-84
2023/05/09 01:14:15;;;;;;;16.20;13.30;;;;;;;17.95;61.00;98969.94;6946908;28;20297;-83
2023/05/09 01:17:47;;;;;;;20.30;14.77;;;;;;;17.99;60.79;98962.09;6947464;28;20634;-84
2023/05/09 01:21:11;;;;;;;15.87;13.53;;;;;;;18.19;60.10;98959.66;6947664;28;20209;-82
2023/05/09 01:24:43;;;;;;;18.63;12.63;;;;;;;18.24;58.99;98951.56;6947153;28;20265;-84
2023/05/09 01:28:13;;;;;;;13.93;12.27;;;;;;;17.84;58.84;98948.19;6947503;28;20297;-83
2023/05/09 01:31:38;;;;;;;14.67;12.70;;;;;;;17.90;60.20;98967.13;6947954;28;20236;-84
2023/05/09 01:35:01;;;;;;;17.97;12.83;;;;;;;17.96;60.01;98968.84;6947002;28;20285;-84
2023/05/09 01:38:23;;;;;;;13.87;11.50;;;;;;;18.06;59.14;98957.28;6948538;28;20372;-84
2023/05/09 01:41:48;;;;;;;13.57;11.47;;;;;;;17.94;59.52;98971.03;6947310;28;20298;-82
2023/05/09 01:45:11;;;;;;;17.10;13.33;;;;;;;16.91;61.63;98930.63;6948009;28;20247;-84
2023/05/09 01:48:35;;;;;;;14.97;13.30;;;;;;;17.23;61.39;98968.03;6947322;28;20282;-84
2023/05/09 01:51:57;;;;;;;15.27;13.33;;;;;;;17.30;61.40;98963.31;6947153;28;20231;-84
2023/05/09 01:55:19;;;;;;;15.43;13.77;;;;;;;17.35;60.54;98935.31;6963481;28;20228;-84
2023/05/09 01:58:42;;;;;;;15.07;12.97;;;;;;;17.15;60.97;98941.19;6981035;28;20212;-84
2023/05/09 02:02:03;;;;;;;19.47;14.67;;;;;;;16.87;61.15;98932.19;6982044;28;20221;-84
2023/05/09 02:05:28;;;;;;;16.70;13.63;;;;;;;17.23;60.86;98940.00;6979159;28;20252;-85
2023/05/09 02:08:50;;;;;;;15.47;13.83;;;;;;;17.26;61.47;98951.22;6979142;28;20204;-84
2023/05/09 02:12:11;;;;;;;16.57;14.77;;;;;;;17.53;60.91;98959.66;6978485;28;20328;-84
2023/05/09 02:15:34;;;;;;;15.13;13.47;;;;;;;17.55;60.44;98961.06;6979148;28;20246;-84
2023/05/09 02:18:55;;;;;;;21.10;15.83;;;;;;;17.74;59.52;98946.13;6979084;28;20210;-84
2023/05/09 02:22:18;;;;;;;17.37;15.43;;;;;;;17.22;60.58;98932.88;6953962;28;20262;-84
2023/05/09 02:25:40;;;;;;;17.17;15.37;;;;;;;17.26;60.07;98934.88;6951157;28;20318;-84
2023/05/09 02:29:03;;;;;;;19.07;15.40;;;;;;;16.89;61.16;98952.69;6951977;28;20265;-83
2023/05/09 02:32:28;;;;;;;25.53;19.87;;;;;;;16.99;61.81;98938.44;6954049;28;20888;-84
2023/05/09 02:35:49;;;;;;;22.40;17.47;;;;;;;16.88;62.23;98950.19;6955304;28;20318;-84
2023/05/09 02:39:12;;;;;;;21.77;17.70;;;;;;;16.98;62.43;98956.66;6959336;28;20695;-83
2023/05/09 02:42:34;;;;;;;19.70;17.53;;;;;;;16.94;62.63;98955.50;6955633;28;20631;-84
2023/05/09 02:45:55;;;;;;;21.37;18.63;;;;;;;16.61;63.21;98927.28;6957136;28;20220;-84
2023/05/09 02:49:17;;;;;;;29.63;20.37;;;;;;;16.37;62.54;98853.03;6957588;28;20298;-84
2023/05/09 02:52:38;;;;;;;28.27;20.57;;;;;;;17.33;62.13;98942.91;6956119;28;20260;-83
2023/05/09 02:56:02;;;;;;;27.63;20.30;;;;;;;17.05;62.97;98945.63;6957770;28;20267;-84
2023/05/09 02:59:25;;;;;;;28.57;22.70;;;;;;;17.01;63.63;98915.34;6958206;28;20216;-84
2023/05/09 03:02:47;;;;;;;28.80;21.77;;;;;;;17.62;62.13;98930.88;6957376;28;20698;-85
2023/05/09 03:06:09;;;;;;;26.73;20.70;;;;;;;17.68;60.74;98891.75;6957670;28;20234;-85
2023/05/09 03:09:30;;;;;;;22.33;18.30;;;;;;;17.89;60.22;98913.66;6957820;28;20302;-84
2023/05/09 03:12:53;;;;;;;22.77;18.00;;;;;;;17.89;59.72;98910.06;6960280;28;20254;-84
2023/05/09 03:16:17;;;;;;;17.90;15.83;;;;;;;17.69;59.80;98891.47;6960497;28;20234;-83
2023/05/09 03:19:38;;;;;;;19.50;16.67;;;;;;;17.27;60.80;98894.84;6963563;28;20293;-84
2023/05/09 03:23:00;;;;;;;22.07;17.67;;;;;;;16.90;61.31;98874.50;6977735;28;20214;-84
2023/05/09 03:26:21;;;;;;;21.93;19.33;;;;;;;16.85;61.86;98893.47;6978746;28;20245;-84
2023/05/09 03:29:44;;;;;;;21.43;17.53;;;;;;;17.00;61.61;98913.69;6978220;28;20304;-84
2023/05/09 03:33:06;;;;;;;23.50;18.77;;;;;;;16.87;61.90;98888.63;6979854;28;20235;-84
2023/05/09 03:36:27;;;;;;;23.43;18.53;;;;;;;17.02;62.18;98906.09;6983089;28;20305;-84
2023/05/09 03:39:49;;;;;;;21.67;17.27;;;;;;;17.38;60.92;98883.88;6983807;28;20741;-83
2023/05/09 03:43:10;;;;;;;20.47;17.70;;;;;;;17.64;60.67;98887.88;6981519;28;20231;-84
2023/05/09 03:46:33;;;;;;;24.30;18.93;;;;;;;17.24;61.56;98887.13;6980647;28;20369;-84
2023/05/09 03:49:55;;;;;;;25.47;21.47;;;;;;;17.33;61.88;98881.03;6980811;28;20286;-84
2023/05/09 03:53:16;;;;;;;27.27;20.17;;;;;;;17.52;61.71;98900.75;6981001;28;20231;-84
2023/05/09 03:56:37;;;;;;;26.63;21.17;;;;;;;17.58;61.72;98881.47;6981215;28;20236;-84
2023/05/09 03:59:59;;;;;;;27.83;21.60;;;;;;;17.44;62.16;98882.06;6981496;28;20272;-84
2023/05/09 04:03:22;;;;;;;33.23;25.80;;;;;;;17.24;63.01;98881.69;6982155;28;20210;-84
2023/05/09 04:06:43;;;;;;;30.90;23.23;;;;;;;17.32;63.43;98882.09;6980253;28;20366;-85
2023/05/09 04:10:06;;;;;;;30.80;24.60;;;;;;;17.60;61.89;98873.91;6980640;28;20713;-85
2023/05/09 04:13:28;;;;;;;29.67;24.40;;;;;;;17.94;61.19;98889.19;6993961;28;20229;-81
2023/05/09 04:16:50;;;;;;;26.73;23.27;;;;;;;18.39;59.85;98889.84;6964743;28;20676;-84
2023/05/09 04:20:13;;;;;;;25.33;21.43;;;;;;;18.21;60.11;98884.63;6949918;28;20286;-84
2023/05/09 04:23:35;;;;;;;22.73;18.97;;;;;;;18.42;59.25;98897.53;6948948;28;20235;-85
2023/05/09 04:26:57;;;;;;;25.83;20.33;;;;;;;18.50;58.84;98897.09;6949891;28;20230;-84
2023/05/09 04:30:19;;;;;;;29.57;21.67;;;;;;;18.06;60.63;98889.06;6949583;28;20255;-83
2023/05/09 04:33:41;;;;;;;27.17;20.47;;;;;;;18.15;60.01;98890.28;6949216;28;20223;-84
2023/05/09 04:37:04;;;;;;;24.60;20.07;;;;;;;18.26;59.42;98883.88;6950363;28;20290;-84
2023/05/09 04:40:26;;;;;;;30.97;22.17;;;;;;;18.21;59.56;98908.41;6950176;28;20235;-84
2023/05/09 04:43:47;;;;;;;30.07;21.07;;;;;;;18.09;60.35;98892.13;6950266;28;20287;-82
2023/05/09 04:47:09;;;;;;;27.20;19.77;;;;;;;18.28;59.90;98907.13;6949852;28;20307;-83
2023/05/09 04:50:30;;;;;;;24.77;19.57;;;;;;;18.42;59.93;98911.19;6952980;28;20298;-84
2023/05/09 04:53:53;;;;;;;23.70;20.20;;;;;;;18.59;59.23;98911.13;6951667;28;20229;-87
2023/05/09 04:57:14;;;;;;;24.20;20.27;;;;;;;18.81;59.36;98896.38;6951021;28;20269;-84
2023/05/09 05:00:36;;;;;;;22.00;18.10;;;;;;;18.43;58.50;98814.53;6960919;28;20299;-84
2023/05/09 05:03:57;;;;;;;22.27;18.37;;;;;;;18.57;58.29;98826.72;6978739;28;20230;-85
2023/05/09 05:07:19;;;;;;;20.50;17.00;;;;;;;18.90;58.06;98888.53;6963785;28;20314;-85
2023/05/09 05:10:42;;;;;;;21.43;17.63;;;;;;;18.16;59.61;98837.38;6957381;28;20672;-86
2023/05/09 05:14:03;;;;;;;18.57;16.27;;;;;;;18.44;58.71;98810.72;6969451;28;20257;-89
2023/05/09 05:17:28;;;;;;;22.57;18.67;;;;;;;18.92;58.29;98902.81;6977153;28;20375;-85
2023/05/09 05:20:49;;;;;;;23.10;20.57;;;;;;;18.96;58.65;98871.13;6963324;28;20199;-85
2023/05/09 05:24:11;;;;;;;23.50;19.50;;;;;;;19.42;57.66;98900.59;6961110;28;20245;-84
2023/05/09 05:27:34;;;;;;;23.57;20.97;;;;;;;19.49;57.28;98895.75;6950428;28;20246;-85
2023/05/09 05:30:55;;;;;;;23.67;20.73;;;;;;;19.74;56.27;98887.78;6955420;28;20230;-86
2023/05/09 05:34:16;;;;;;;24.43;21.83;;;;;;;19.77;55.78;98893.56;6953177;28;20313;-86
2023/05/09 05:37:38;;;;;;;25.53;21.53;;;;;;;19.80;55.35;98889.47;6954357;28;20785;-85
2023/05/09 05:41:00;;;;;;;25.63;21.17;;;;;;;20.01;55.58;98889.34;6955054;28;20683;-86
2023/05/09 05:44:22;;;;;;;24.30;21.20;;;;;;;20.17;55.17;98877.41;6955668;28;20301;-85
2023/05/09 05:47:44;;;;;;;23.27;20.20;;;;;;;20.42;54.42;98884.97;6982961;28;20258;-87
2023/05/09 05:51:06;;;;;;;22.83;20.40;;;;;;;20.59;53.97;98877.38;6984287;28;20237;-86
2023/05/09 05:54:27;;;;;;;24.60;19.90;;;;;;;20.69;53.40;98864.53;6982668;28;20315;-85
2023/05/09 05:57:49;;;;;;;23.67;19.70;;;;;;;20.67;52.95;98866.72;6982299;28;20304;-86
2023/05/09 06:01:12;;;;;;;21.47;19.17;;;;;;;20.78;53.03;98855.53;6982878;28;20240;-85
2023/05/09 06:04:34;;;;;;;22.60;19.87;;;;;;;19.83;53.91;98761.16;6981730;28;20206;-85
2023/05/09 06:07:55;;;;;;;23.40;20.90;;;;;;;19.67;55.11;98785.94;6981913;28;20198;-86
2023/05/09 06:11:17;;;;;;;23.73;20.27;;;;;;;20.67;54.15;98845.59;6982164;28;20222;-85
2023/05/09 06:14:38;;;;;;;23.57;20.20;;;;;;;21.00;53.18;98849.88;6982891;28;20230;-85
2023/05/09 06:18:01;;;;;;;22.70;19.20;;;;;;;21.17;52.07;98819.47;6981644;28;20351;-85
2023/05/09 06:21:23;;;;;;;21.20;19.03;;;;;;;21.07;52.34;98814.78;6982011;28;20202;-85
2023/05/09 06:24:44;;;;;;;21.60;19.40;;;;;;;21.08;52.46;98824.66;6988939;28;20226;-85
2023/05/09 06:28:06;;;;;;;23.03;20.13;;;;;;;21.17;52.25;98839.47;7002025;28;20245;-86
2023/05/09 06:31:28;;;;;;;21.83;19.53;;;;;;;21.60;52.50;98830.72;6995410;28;20249;-85
2023/05/09 06:34:51;;;;;;;21.13;18.83;;;;;;;21.72;50.95;98799.16;6987111;28;20290;-85
2023/05/09 06:38:13;;;;;;;21.67;18.50;;;;;;;22.61;49.03;98822.00;6980702;28;20201;-84
2023/05/09 06:41:34;;;;;;;22.20;19.20;;;;;;;22.15;48.32;98789.47;6980673;28;20297;-84
2023/05/09 06:44:56;;;;;;;22.10;18.80;;;;;;;22.59;47.45;98754.69;6978219;28;20316;-85
2023/05/09 06:48:17;;;;;;;19.77;17.60;;;;;;;22.79;47.04;98810.38;6979621;28;20290;-84
2023/05/09 06:51:40;;;;;;;20.63;18.50;;;;;;;22.34;47.84;98810.56;6979854;28;20337;-85
2023/05/09 06:55:01;;;;;;;19.83;17.83;;;;;;;21.77;48.63;98810.16;6979877;28;20721;-85
2023/05/09 06:58:23;;;;;;;20.47;17.87;;;;;;;22.61;49.74;98807.44;6979715;28;20298;-84
2023/05/09 07:01:44;;;;;;;20.23;18.07;;;;;;;21.71;50.50;98803.03;6980049;28;20239;-85
2023/05/09 07:05:06;;;;;;;19.77;17.77;;;;;;;22.68;48.51;98784.06;6979861;28;20294;-85
2023/05/09 07:08:29;;;;;;;19.00;17.10;;;;;;;23.40;45.49;98795.13;6980127;28;20306;-86
2023/05/09 07:11:51;;;;;;;19.30;17.40;;;;;;;23.42;46.14;98800.34;6979721;28;20241;-85
2023/05/09 07:15:12;;;;;;;20.83;18.63;;;;;;;21.89;49.27;98791.47;6980345;28;20784;-85
2023/05/09 07:18:34;;;;;;;21.37;19.17;;;;;;;21.66;49.32;98719.84;6979523;28;20346;-85
2023/05/09 07:21:55;;;;;;;22.20;19.80;;;;;;;21.77;49.75;98792.88;6979406;28;20236;-85
2023/05/09 07:25:18;;;;;;;21.83;19.53;;;;;;;22.64;48.26;98780.22;6979749;28;20312;-85
2023/05/09 07:28:40;;;;;;;21.17;18.97;;;;;;;22.67;48.10;98762.34;6979635;28;20204;-85
2023/05/09 07:32:01;;;;;;;21.37;19.23;;;;;;;21.87;48.79;98737.94;6978302;28;20688;-85
2023/05/09 07:35:23;;;;;;;34.00;20.17;;;;;;;22.95;48.29;98775.38;6979045;28;20259;-85
2023/05/09 07:38:46;;;;;;;19.97;17.97;;;;;;;22.74;48.50;98747.19;6978826;28;20662;-85
2023/05/09 07:42:10;;;;;;;17.10;15.30;;;;;;;24.63;43.82;98751.13;6978291;28;20647;-84
2023/05/09 07:45:32;;;;;;;19.90;17.73;;;;;;;23.90;44.11;98742.34;6979321;28;20229;-85
2023/05/09 07:48:53;;;;;;;17.83;15.97;;;;;;;24.29;44.14;98745.75;6978474;28;20209;-85
2023/05/09 07:52:16;;;;;;;17.80;15.73;;;;;;;24.27;43.42;98733.38;6977932;28;20335;-85
2023/05/09 07:55:37;;;;;;;19.63;17.63;;;;;;;24.79;41.46;98711.97;6978654;28;20275;-85
2023/05/09 07:59:00;;;;;;;16.73;15.10;;;;;;;23.02;46.66;98724.41;6978711;28;20325;-85
2023/05/09 08:02:22;;;;;;;19.17;16.77;;;;;;;23.02;45.25;98712.59;6978074;28;20544;-85
2023/05/09 08:05:43;;;;;;;18.30;16.00;;;;;;;23.04;44.36;98694.72;6978502;28;20364;-85
2023/05/09 08:09:05;;;;;;;18.50;16.43;;;;;;;23.14;44.29;98691.84;6977951;28;20238;-86
2023/05/09 08:12:27;;;;;;;18.60;16.70;;;;;;;22.24;46.76;98683.44;6978374;28;20211;-84
2023/05/09 08:15:50;;;;;;;16.47;14.77;;;;;;;23.26;43.54;98695.06;6978021;28;20730;-85
2023/05/09 08:19:11;;;;;;;16.80;14.97;;;;;;;23.71;42.56;98689.13;6978647;28;20211;-85
2023/05/09 08:22:33;;;;;;;15.20;13.70;;;;;;;24.56;40.90;98688.06;6961530;28;20264;-85
2023/05/09 08:25:55;;;;;;;14.53;12.33;;;;;;;23.98;41.83;98674.78;6956837;28;20717;-83
2023/05/09 08:29:16;;;;;;;10.07;9.07;;;;;;;25.08;39.59;98642.84;6949462;28;20207;-87
2023/05/09 08:32:39;;;;;;;13.23;11.87;;;;;;;26.41;37.54;98670.03;6949895;28;20629;-86
2023/05/09 08:36:01;;;;;;;7.70;7.00;;;;;;;27.09;35.19;98648.50;6950441;28;20227;-88
2023/05/09 08:39:23;;;;;;;8.30;7.40;;;;;;;27.07;35.27;98654.34;6951741;28;20222;-85
2023/05/09 08:42:45;;;;;;;9.30;6.77;;;;;;;26.96;35.26;98652.19;6962783;28;20611;-85
2023/05/09 08:46:08;;;;;;;48.60;43.43;;;;;;;26.82;35.41;98587.75;6977324;28;20222;-88
2023/05/09 08:49:32;;;;;;;9.30;8.30;;;;;;;26.71;34.29;98633.44;6978012;28;20237;-87
2023/05/09 08:52:53;;;;;;;8.60;7.50;;;;;;;26.48;34.67;98629.78;6976893;28;20217;-89
2023/05/09 08:56:15;;;;;;;6.83;6.23;;;;;;;26.96;34.47;98630.03;6977183;28;20371;-86
2023/05/09 08:59:37;;;;;;;7.63;6.93;;;;;;;26.24;34.74;98556.56;6976767;28;20211;-87
2023/05/09 09:03:02;;;;;;;6.80;6.10;;;;;;;27.12;33.62;98592.50;6975341;28;20231;-85
2023/05/09 09:06:25;;;;;;;5.43;4.93;;;;;;;27.80;32.65;98618.66;6975913;28;20245;-85
2023/05/09 09:09:48;;;;;;;6.57;5.33;;;;;;;27.43;33.64;98623.84;6993481;28;20205;-85
2023/05/09 09:13:12;;;;;;;7.30;6.70;;;;;;;27.47;33.25;98624.81;7003712;28;20350;-84
2023/05/09 09:16:34;;;;;;;6.63;5.80;;;;;;;27.48;32.50;98610.66;7004028;28;20276;-85
2023/05/09 09:19:58;;;;;;;6.37;5.80;;;;;;;27.51;32.30;98610.03;7004191;28;20221;-86
2023/05/09 09:23:24;;;;;;;7.73;6.53;;;;;;;27.36;32.81;98579.19;6999940;28;20196;-85
2023/05/09 09:26:47;;;;;;;6.57;5.97;;;;;;;27.32;33.73;98612.19;6976558;28;20731;-84
2023/05/09 09:30:10;;;;;;;7.03;6.33;;;;;;;27.95;32.97;98592.44;6969510;28;20214;-86
2023/05/09 09:33:32;;;;;;;6.07;5.43;;;;;;;28.08;33.27;98608.13;6949069;28;20556;-87
2023/05/09 09:36:53;;;;;;;6.30;5.70;;;;;;;27.49;32.91;98603.97;6956544;28;20247;-84
2023/05/09 09:40:16;;;;;;;6.10;5.50;;;;;;;28.08;32.34;98592.28;6975326;28;20290;-85
2023/05/09 09:43:38;;;;;;;5.60;5.10;;;;;;;27.98;34.41;98587.06;6976245;28;20198;-87
2023/05/09 09:46:59;;;;;;;7.03;6.33;;;;;;;27.83;33.71;98567.31;6952968;28;20310;-84
2023/05/09 09:50:24;;;;;;;7.30;6.70;;;;;;;28.20;32.41;98575.03;6948671;28;20205;-83
2023/05/09 09:53:45;;;;;;;6.67;6.00;;;;;;;28.14;32.35;98563.25;6949182;28;20578;-87
2023/05/09 09:57:08;;;;;;;8.17;7.10;;;;;;;27.72;32.43;98518.84;6948359;28;20228;-85
2023/05/09 10:00:31;;;;;;;10.90;6.53;;;;;;;28.05;33.89;98565.22;6948753;28;20285;-85
2023/05/09 10:03:53;;;;;;;8.27;7.47;;;;;;;28.20;32.08;98531.47;6948540;28;20552;-85
2023/05/09 10:07:14;;;;;;;7.90;7.10;;;;;;;25.92;36.30;98540.16;6948392;28;20290;-84
2023/05/09 10:10:37;;;;;;;8.23;7.03;;;;;;;27.48;34.56;98540.63;6948694;28;20267;-84
2023/05/09 10:14:00;;;;;;;8.00;7.20;;;;;;;28.01;33.12;98535.72;6948381;28;20274;-85
2023/05/09 10:17:22;;;;;;;7.93;7.23;;;;;;;28.24;33.86;98526.13;6949188;28;20234;-84
2023/05/09 10:20:44;;;;;;;9.60;8.70;;;;;;;28.23;33.49;98524.47;6953822;28;20271;-85
2023/05/09 10:24:07;;;;;;;9.43;8.53;;;;;;;27.84;33.90;98525.41;6953571;28;20222;-88
2023/05/09 10:27:31;;;;;;;7.60;6.90;;;;;;;28.77;33.01;98507.16;6981842;28;20265;-85
2023/05/09 10:30:58;;;;;;;8.30;7.50;;;;;;;28.85;33.25;98509.88;6980999;28;20712;-85
2023/05/09 10:34:21;;;;;;;4.40;4.00;;;;;;;28.85;34.15;98486.88;6980109;28;20310;-82
2023/05/09 10:37:42;;;;;;;3.93;3.63;;;;;;;28.52;33.40;98481.09;6955416;28;20315;-82
2023/05/09 10:41:05;;;;;;;4.60;4.20;;;;;;;28.05;34.14;98493.16;6955894;28;20252;-83
2023/05/09 10:44:26;;;;;;;4.50;4.10;;;;;;;28.18;34.66;98483.06;6953218;28;20200;-82
2023/05/09 10:47:52;;;;;;;3.90;3.60;;;;;;;28.94;32.35;98457.94;6953420;28;20232;-82
2023/05/09 10:51:14;;;;;;;4.00;3.70;;;;;;;29.57;31.74;98460.63;6957952;28;20277;-83
2023/05/09 10:54:36;;;;;;;3.07;2.77;;;;;;;29.19;30.80;98453.47;6988215;28;20225;-83
2023/05/09 10:58:18;;;;;;;4.10;3.43;;;;;;;29.29;31.72;98453.06;6979491;28;20204;-84
2023/05/09 11:01:39;;;;;;;3.67;3.37;;;;;;;29.40;32.02;98445.97;6980685;28;20204;-83
2023/05/09 11:05:16;;;;;;;4.70;3.73;;;;;;;28.18;32.59;98442.25;6979806;28;20366;-84
2023/05/09 11:08:42;;;;;;;4.13;3.73;;;;;;;28.34;32.90;98437.84;6980157;28;20734;-83
2023/05/09 11:12:10;;;;;;;3.90;3.60;;;;;;;29.00;32.52;98406.66;6979292;28;20229;-83
2023/05/09 11:15:32;;;;;;;4.00;3.70;;;;;;;29.19;32.54;98428.47;6978969;28;20234;-83
2023/05/09 11:18:54;;;;;;;4.80;4.40;;;;;;;28.50;33.19;98407.66;6968263;28;20286;-83
2023/05/09 11:22:19;;;;;;;5.47;4.60;;;;;;;27.72;35.11;98394.16;6953760;28;20226;-82
2023/05/09 11:25:42;;;;;;;7.23;5.23;;;;;;;27.56;34.83;98413.22;6952378;28;20315;-83
2023/05/09 11:29:06;;;;;;;5.97;5.47;;;;;;;28.04;34.73;98400.03;6951464;28;20281;-83
2023/05/09 11:32:31;;;;;;;5.77;5.27;;;;;;;27.95;35.06;98379.81;6950169;28;20248;-82
2023/05/09 11:36:17;;;;;;;5.53;5.03;;;;;;;27.95;34.67;98393.69;6960990;28;20230;-83
2023/05/09 11:40:00;;;;;;;6.70;6.10;;;;;;;27.24;35.98;98393.47;6978876;28;20195;-83
2023/05/09 11:43:22;;;;;;;6.43;5.90;;;;;;;27.71;35.51;98389.78;6978922;28;20241;-83
2023/05/09 11:46:43;;;;;;;6.80;6.20;;;;;;;27.69;35.31;98367.94;6980169;28;20405;-83
2023/05/09 11:50:07;;;;;;;6.00;5.23;;;;;;;28.37;34.69;98370.63;6972078;28;20256;-83
2023/05/09 11:53:28;;;;;;;6.43;5.40;;;;;;;28.65;34.52;98352.44;6977971;28;20205;-82
2023/05/09 11:56:51;;;;;;;6.20;5.40;;;;;;;29.01;33.87;98358.31;6977122;28;20299;-85
2023/05/09 12:00:15;;;;;;;5.30;4.67;;;;;;;28.91;34.51;98338.44;6969903;28;20219;-82
2023/05/09 12:03:42;;;;;;;6.10;5.60;;;;;;;28.59;34.70;98350.16;6951559;28;20287;-84
2023/05/09 12:07:04;;;;;;;6.30;5.77;;;;;;;28.47;34.70;98345.31;6971325;28;20267;-83
2023/05/09 12:10:25;;;;;;;6.33;5.83;;;;;;;28.13;34.55;98334.31;6979545;28;20212;-82
2023/05/09 12:13:49;;;;;;;7.93;5.83;;;;;;;27.32;37.42;98334.50;6978027;28;20206;-82
2023/05/09 12:17:11;;;;;;;6.03;5.43;;;;;;;28.28;35.81;98327.41;6978520;28;20234;-83
2023/05/09 12:20:42;;;;;;;6.73;5.97;;;;;;;28.52;34.33;98316.59;6958608;28;20557;-83
2023/05/09 12:24:05;;;;;;;5.90;5.40;;;;;;;28.57;34.64;98281.16;6952109;28;20294;-83
2023/05/09 12:27:27;;;;;;;5.70;5.20;;;;;;;28.60;34.67;98311.00;6952362;28;20292;-84
2023/05/09 12:30:51;;;;;;;5.23;4.80;;;;;;;28.21;34.35;98286.34;6954448;28;20369;-83
2023/05/09 12:34:12;;;;;;;5.07;4.63;;;;;;;28.36;34.80;98291.31;6976343;28;20223;-83
2023/05/09 12:37:34;;;;;;;5.13;4.50;;;;;;;28.40;34.66;98284.00;6977678;28;20245;-83
2023/05/09 12:41:06;;;;;;;6.43;4.77;;;;;;;28.28;34.82;98288.59;6976433;28;20199;-85
2023/05/09 12:44:28;;;;;;;4.63;4.23;;;;;;;28.42;34.93;98278.94;6976625;28;20233;-84
2023/05/09 12:47:53;;;;;;;5.40;4.20;;;;;;;28.90;33.78;98284.06;6978051;28;20289;-85
2023/05/09 12:51:18;;;;;;;4.77;3.63;;;;;;;29.13;33.32;98268.75;6972659;28;20256;-85
2023/05/09 12:54:46;;;;;;;3.97;3.50;;;;;;;29.12;32.25;98276.28;6978850;28;20300;-84
2023/05/09 12:58:07;;;;;;;3.77;3.47;;;;;;;29.18;33.11;98261.03;6979412;28;20188;-82
2023/05/09 13:01:29;;;;;;;4.07;3.67;;;;;;;29.41;32.10;98245.63;6969884;28;20302;-84
2023/05/09 13:05:05;;;;;;;3.50;3.20;;;;;;;29.69;32.38;98251.44;6960263;28;20217;-83
2023/05/09 13:08:27;;;;;;;5.50;4.17;;;;;;;29.65;31.96;98242.16;6954805;28;20245;-84
2023/05/09 13:11:49;;;;;;;4.10;3.70;;;;;;;29.58;32.67;98239.13;6947923;28;20204;-84
2023/05/09 13:15:11;;;;;;;3.50;3.20;;;;;;;29.86;31.89;98229.03;6951754;28;20293;-85
2023/05/09 13:18:33;;;;;;;4.40;3.83;;;;;;;30.15;31.56;98217.75;6974929;28;20200;-83
2023/05/09 13:21:56;;;;;;;3.60;3.30;;;;;;;29.57;31.38;98218.88;6975262;28;20215;-83
2023/05/09 13:25:19;;;;;;;4.97;3.70;;;;;;;29.64;31.96;98185.78;6968909;28;20292;-83
2023/05/09 13:28:40;;;;;;;4.23;3.83;;;;;;;29.49;31.63;98193.94;6976731;28;20412;-83
2023/05/09 13:32:02;;;;;;;3.37;3.07;;;;;;;29.89;31.04;98200.56;6967547;28;20373;-84
2023/05/09 13:35:24;;;;;;;3.33;3.03;;;;;;;29.60;32.25;98148.72;6948246;28;20238;-83
2023/05/09 13:38:47;;;;;;;3.57;3.10;;;;;;;29.76;31.13;98165.53;6947847;28;20355;-83
2023/05/09 13:42:08;;;;;;;4.03;3.63;;;;;;;28.85;31.94;98185.16;6946687;28;20726;-83
2023/05/09 13:45:30;;;;;;;3.80;3.30;;;;;;;28.90;32.01;98159.97;6947445;28;20322;-83
2023/05/09 13:48:51;;;;;;;3.70;3.20;;;;;;;27.60;34.74;98162.13;6945643;28;20300;-83
2023/05/09 13:52:14;;;;;;;4.10;3.50;;;;;;;27.56;36.19;98157.56;6945726;28;20203;-83
2023/05/09 13:55:37;;;;;;;3.70;3.40;;;;;;;28.52;34.38;98156.50;6950219;28;20237;-83
2023/05/09 13:58:58;;;;;;;3.80;3.40;;;;;;;27.30;34.58;98154.06;6970645;28;20240;-83
2023/05/09 14:02:20;;;;;;;5.13;3.30;;;;;;;27.66;34.75;98140.59;6979495;28;20248;-82
2023/05/09 14:05:42;;;;;;;5.40;3.83;;;;;;;27.19;35.43;98148.03;6977694;28;20347;-83
2023/05/09 14:09:03;;;;;;;3.33;3.10;;;;;;;28.41;34.16;98130.31;6966956;28;20211;-83
2023/05/09 14:12:27;;;;;;;3.40;3.20;;;;;;;28.90;33.55;98137.75;6974795;28;20294;-83
2023/05/09 14:15:48;;;;;;;3.47;3.13;;;;;;;28.90;33.06;98123.88;6961812;28;20251;-83
2023/05/09 14:19:10;;;;;;;3.40;3.10;;;;;;;28.86;32.59;98120.19;6952844;28;20290;-82
2023/05/09 14:22:32;;;;;;;3.93;3.47;;;;;;;29.39;31.82;98122.97;6952311;28;20241;-83
2023/05/09 14:25:54;;;;;;;3.57;3.27;;;;;;;29.30;32.12;98119.44;6951996;28;20307;-83
2023/05/09 14:29:17;;;;;;;3.37;3.10;;;;;;;28.48;33.09;98102.06;6951895;28;20201;-85
2023/05/09 14:32:38;;;;;;;4.10;3.80;;;;;;;28.65;33.53;98099.13;6960001;28;20198;-85
2023/05/09 14:36:01;;;;;;;3.93;3.40;;;;;;;28.33;33.02;98099.84;6968079;28;20314;-82
2023/05/09 14:39:23;;;;;;;3.70;3.27;;;;;;;28.56;32.50;98082.56;6951479;28;20298;-82
2023/05/09 14:42:46;;;;;;;4.23;2.80;;;;;;;28.60;32.90;98083.50;6955022;28;20213;-82
2023/05/09 14:46:09;;;;;;;3.23;2.87;;;;;;;27.92;34.58;98095.06;6955606;28;20255;-83
2023/05/09 14:49:30;;;;;;;3.53;3.33;;;;;;;28.26;33.80;98103.13;6951957;28;20275;-83
2023/05/09 14:52:52;;;;;;;3.50;3.20;;;;;;;25.99;38.95;98099.28;6951289;28;20204;-83
2023/05/09 14:56:14;;;;;;;5.20;3.20;;;;;;;25.62;42.65;98124.66;6953491;28;20314;-84
2023/05/09 14:59:36;;;;;;;9.07;4.30;;;;;;;24.21;50.24;98133.91;6952313;28;20271;-85
2023/05/09 15:02:59;;;;;;;5.93;3.50;;;;;;;23.01;52.56;98053.75;6970184;28;20216;-85
2023/05/09 15:06:22;;;;;;;7.70;3.83;;;;;;;23.36;53.38;98092.41;6979325;28;20711;-84
2023/05/09 15:09:43;;;;;;;6.07;4.10;;;;;;;23.43;52.49;98128.59;6954571;28;20219;-85
2023/05/09 15:13:05;;;;;;;10.40;5.00;;;;;;;22.86;55.51;98062.25;6972066;28;20302;-85
2023/05/09 15:16:26;;;;;;;6.47;3.60;;;;;;;21.31;58.29;98113.81;6978927;28;20230;-85
2023/05/09 15:19:49;;;;;;;5.00;3.37;;;;;;;22.89;55.20;98095.44;6961141;28;20284;-85
2023/05/09 15:23:12;;;;;;;2.97;2.50;;;;;;;23.28;52.48;98084.88;6984276;28;20261;-85
2023/05/09 15:26:33;;;;;;;5.57;3.27;;;;;;;23.19;56.21;98061.94;6980208;28;20234;-85
2023/05/09 15:29:55;;;;;;;5.13;3.70;;;;;;;23.06;56.31;98031.66;6966956;28;20213;-84
2023/05/09 15:33:17;;;;;;;8.00;3.70;;;;;;;23.75;54.90;98043.19;6979442;28;20209;-84
2023/05/09 15:36:40;;;;;;;3.07;2.67;;;;;;;23.47;52.46;98071.84;6977481;28;20229;-86
2023/05/09 15:40:01;;;;;;;4.10;3.10;;;;;;;23.36;54.35;97982.38;6951088;28;20699;-85
2023/05/09 15:43:23;;;;;;;3.40;3.07;;;;;;;23.83;54.42;98005.88;6951178;28;20572;-88